createdAt,value
2023-03-30T00:02:10.728Z,63.33
2023-03-30T00:07:31.550Z,63.89
2023-03-30T00:12:52.917Z,63.63
2023-03-30T00:18:14.519Z,63.63
2023-03-30T00:23:35.572Z,63.75
2023-03-30T00:28:56.132Z,63.57
2023-03-30T00:34:16.993Z,63.88
2023-03-30T00:39:37.565Z,63.93
2023-03-30T00:45:21.566Z,64.39
2023-03-30T00:50:50.846Z,64.60
2023-03-30T00:56:14.904Z,64.94
2023-03-30T01:01:39.583Z,65.20
2023-03-30T01:07:01.178Z,65.52
2023-03-30T01:12:21.889Z,66.15
2023-03-30T01:18:24.186Z,65.86
2023-03-30T01:24:07.822Z,66.23
2023-03-30T01:30:08.491Z,66.33
2023-03-30T01:35:32.312Z,66.24
2023-03-30T01:41:09.846Z,66.22
2023-03-30T01:46:40.400Z,66.88
2023-03-30T01:52:11.076Z,66.90
2023-03-30T01:57:36.049Z,67.21
2023-03-30T02:03:05.668Z,67.20
2023-03-30T02:08:31.259Z,67.30
2023-03-30T02:13:55.242Z,67.45
2023-03-30T02:19:17.113Z,67.72
2023-03-30T02:24:38.176Z,67.64
2023-03-30T02:29:59.034Z,68.00
2023-03-30T02:35:38.969Z,68.10
2023-03-30T02:41:26.497Z,68.10
2023-03-30T02:46:59.952Z,68.07
2023-03-30T02:52:36.975Z,68.21
2023-03-30T02:58:23.766Z,68.46
2023-03-30T03:03:59.403Z,68.83
2023-03-30T03:09:26.083Z,69.05
2023-03-30T03:14:46.979Z,69.03
2023-03-30T03:20:10.690Z,69.31
2023-03-30T03:25:31.689Z,69.53
2023-03-30T03:30:58.445Z,69.50
2023-03-30T03:36:19.624Z,69.60
2023-03-30T03:41:44.862Z,69.75
2023-03-30T03:47:05.493Z,69.87
2023-03-30T03:52:26.686Z,69.91
2023-03-30T03:57:47.316Z,69.98
2023-03-30T04:03:09.220Z,69.88
2023-03-30T04:08:30.523Z,70.23
2023-03-30T04:13:59.470Z,70.38
2023-03-30T04:19:42.857Z,70.21
2023-03-30T04:25:25.968Z,70.20
2023-03-30T04:31:22.896Z,70.29
2023-03-30T04:37:03.946Z,70.32
2023-03-30T04:42:30.801Z,70.24
2023-03-30T04:48:13.551Z,70.38
2023-03-30T04:54:12.492Z,70.22
2023-03-30T05:00:12.335Z,70.56
2023-03-30T05:05:56.115Z,70.77
2023-03-30T05:11:35.810Z,70.62
2023-03-30T05:17:19.721Z,70.29
2023-03-30T05:23:07.988Z,70.73
2023-03-30T05:28:48.867Z,70.53
2023-03-30T05:34:18.969Z,70.90
2023-03-30T05:39:56.103Z,71.10
2023-03-30T05:45:35.976Z,70.75
2023-03-30T05:51:15.983Z,71.23
2023-03-30T05:56:54.182Z,71.38
2023-03-30T06:02:35.587Z,71.07
2023-03-30T06:08:01.046Z,71.10
2023-03-30T06:13:22.412Z,71.15
2023-03-30T06:18:46.959Z,71.09
2023-03-30T06:24:09.327Z,70.87
2023-03-30T06:29:32.901Z,71.32
2023-03-30T06:34:54.111Z,71.28
2023-03-30T06:40:19.171Z,70.83
2023-03-30T06:45:44.310Z,71.30
2023-03-30T06:51:06.751Z,71.04
2023-03-30T06:56:28.068Z,71.44
2023-03-30T07:02:18.047Z,71.57
2023-03-30T07:07:59.682Z,71.34
2023-03-30T07:13:21.318Z,71.58
2023-03-30T07:18:43.584Z,71.56
2023-03-30T07:24:04.476Z,71.79
2023-03-30T07:29:29.648Z,71.63
2023-03-30T07:34:51.330Z,71.53
2023-03-30T07:40:13.111Z,71.20
2023-03-30T07:45:36.098Z,71.50
2023-03-30T07:51:06.893Z,71.55
2023-03-30T07:56:33.552Z,71.46
2023-03-30T08:01:56.326Z,70.98
2023-03-30T08:07:39.833Z,71.02
2023-03-30T08:13:12.612Z,71.04
2023-03-30T08:18:33.821Z,70.84
2023-03-30T08:23:57.978Z,71.10
2023-03-30T08:29:19.405Z,71.23
2023-03-30T08:34:40.824Z,71.31
2023-03-30T08:40:01.979Z,71.19
2023-03-30T08:45:23.113Z,71.14
2023-03-30T08:51:07.175Z,71.43
2023-03-30T08:57:03.460Z,71.52
2023-03-30T09:02:31.144Z,71.43
2023-03-30T09:08:06.425Z,71.57
2023-03-30T09:13:36.456Z,71.59
2023-03-30T09:19:01.688Z,71.66
2023-03-30T09:24:26.349Z,71.73
2023-03-30T09:29:49.246Z,71.94
2023-03-30T09:35:13.369Z,72.44
2023-03-30T09:40:47.521Z,72.18
2023-03-30T09:46:09.447Z,72.66
2023-03-30T09:51:31.390Z,72.70
2023-03-30T09:56:54.573Z,72.93
2023-03-30T10:02:18.139Z,73.41
2023-03-30T10:07:41.999Z,73.49
2023-03-30T10:13:12.257Z,73.33
2023-03-30T10:18:45.062Z,73.42
2023-03-30T10:24:22.307Z,73.46
2023-03-30T10:29:50.312Z,73.58
2023-03-30T10:35:11.443Z,73.57
2023-03-30T10:40:39.202Z,73.69
2023-03-30T10:46:27.851Z,73.84
2023-03-30T10:52:01.150Z,74.08
2023-03-30T10:57:32.531Z,73.63
2023-03-30T11:03:12.845Z,74.12
2023-03-30T11:08:43.131Z,73.98
2023-03-30T11:14:12.646Z,73.70
2023-03-30T11:19:42.528Z,73.87
2023-03-30T11:25:16.691Z,74.16
2023-03-30T11:30:39.258Z,73.97
2023-03-30T11:36:23.653Z,74.38
2023-03-30T11:42:28.769Z,73.95
2023-03-30T11:48:27.121Z,74.63
2023-03-30T11:54:21.959Z,74.72
2023-03-30T11:59:56.397Z,74.56
2023-03-30T12:05:27.995Z,74.80
2023-03-30T12:10:54.654Z,75.00
2023-03-30T12:16:29.148Z,74.80
2023-03-30T12:22:04.608Z,74.59
2023-03-30T12:27:29.119Z,74.90
2023-03-30T12:33:11.546Z,74.89
2023-03-30T12:38:43.613Z,74.80
2023-03-30T12:44:23.178Z,75.07
2023-03-30T12:50:06.811Z,75.08
2023-03-30T12:55:27.509Z,75.80
2023-03-30T13:01:01.206Z,75.42
2023-03-30T13:06:24.244Z,75.48
2023-03-30T13:11:56.981Z,75.42
2023-03-30T13:17:22.229Z,75.44
2023-03-30T13:22:59.491Z,75.29
2023-03-30T13:28:35.726Z,75.40
2023-03-30T13:34:23.385Z,75.26
2023-03-30T13:39:55.772Z,75.23
2023-03-30T13:45:43.224Z,75.63
2023-03-30T13:51:04.745Z,75.58
2023-03-30T13:56:27.408Z,75.54
2023-03-30T14:01:57.361Z,75.38
2023-03-30T14:07:19.867Z,75.22
2023-03-30T14:12:41.758Z,75.44
2023-03-30T14:18:05.287Z,75.52
2023-03-30T14:23:38.109Z,75.27
2023-03-30T14:29:03.371Z,75.02
2023-03-30T14:34:28.187Z,75.27
2023-03-30T14:39:55.491Z,75.06
2023-03-30T14:45:18.928Z,75.20
2023-03-30T14:50:40.014Z,75.39
2023-03-30T14:56:01.487Z,75.45
2023-03-30T15:01:31.047Z,75.36
2023-03-30T15:06:53.520Z,75.36
2023-03-30T15:12:29.808Z,75.37
2023-03-30T15:17:51.491Z,75.32
2023-03-30T15:23:13.942Z,75.59
2023-03-30T15:28:44.320Z,75.60
2023-03-30T15:34:14.300Z,75.49
2023-03-30T15:39:36.374Z,75.32
2023-03-30T15:45:09.792Z,75.19
2023-03-30T15:50:30.614Z,75.08
2023-03-30T15:55:52.192Z,74.98
2023-03-30T16:01:16.827Z,74.98
2023-03-30T16:06:37.744Z,74.88
2023-03-30T16:11:58.514Z,74.83
2023-03-30T16:17:19.638Z,74.67
2023-03-30T16:22:40.633Z,74.74
2023-03-30T16:28:01.629Z,74.37
2023-03-30T16:33:22.272Z,74.37
2023-03-30T16:38:43.494Z,74.00
2023-03-30T16:44:04.106Z,73.92
2023-03-30T16:49:26.232Z,73.77
2023-03-30T16:54:47.138Z,73.99
2023-03-30T17:00:15.355Z,73.60
2023-03-30T17:05:36.885Z,73.91
2023-03-30T17:11:01.445Z,74.02
2023-03-30T17:16:25.175Z,73.55
2023-03-30T17:21:46.297Z,73.45
2023-03-30T17:27:07.013Z,73.37
2023-03-30T17:32:27.814Z,73.43
2023-03-30T17:37:49.999Z,73.44
2023-03-30T17:43:11.276Z,73.42
2023-03-30T17:48:32.265Z,73.54
2023-03-30T17:53:53.335Z,73.48
2023-03-30T17:59:14.106Z,73.37
2023-03-30T18:04:35.235Z,73.20
2023-03-30T18:09:56.245Z,72.58
2023-03-30T18:15:19.847Z,71.49
2023-03-30T18:20:43.965Z,71.85
2023-03-30T18:26:10.285Z,71.36
2023-03-30T18:31:32.316Z,72.08
2023-03-30T18:36:53.207Z,72.35
2023-03-30T18:42:13.849Z,72.28
2023-03-30T18:47:34.559Z,72.42
2023-03-30T18:52:55.355Z,73.04
2023-03-30T18:58:21.187Z,72.77
2023-03-30T19:03:42.850Z,72.79
2023-03-30T19:09:03.582Z,73.10
2023-03-30T19:14:24.094Z,72.95
2023-03-30T19:19:44.867Z,72.75
2023-03-30T19:25:06.405Z,72.89
2023-03-30T19:30:27.518Z,72.64
2023-03-30T19:35:48.660Z,72.73
2023-03-30T19:41:09.542Z,73.29
2023-03-30T19:46:30.693Z,73.08
2023-03-30T19:51:51.480Z,73.12
2023-03-30T19:57:12.731Z,72.97
2023-03-30T20:02:33.675Z,72.91
2023-03-30T20:07:54.381Z,72.60
2023-03-30T20:13:17.025Z,72.33
2023-03-30T20:18:40.293Z,72.11
2023-03-30T20:24:01.010Z,72.17
2023-03-30T20:29:21.619Z,72.06
2023-03-30T20:34:42.581Z,72.14
2023-03-30T20:40:09.980Z,72.29
2023-03-30T20:45:31.780Z,71.96
2023-03-30T20:50:56.295Z,72.40
2023-03-30T20:56:17.806Z,72.56
2023-03-30T21:01:41.321Z,72.63
2023-03-30T21:07:02.364Z,72.61
2023-03-30T21:12:23.125Z,72.53
2023-03-30T21:17:43.889Z,72.39
2023-03-30T21:23:04.581Z,72.53
2023-03-30T21:28:29.630Z,72.60
2023-03-30T21:33:50.683Z,72.38
2023-03-30T21:39:11.633Z,72.92
2023-03-30T21:44:36.387Z,72.70
2023-03-30T21:49:57.396Z,72.58
2023-03-30T21:55:18.164Z,72.50
2023-03-30T22:00:38.823Z,72.59
2023-03-30T22:06:01.883Z,72.66
2023-03-30T22:11:25.451Z,72.82
2023-03-30T22:16:46.922Z,72.54
2023-03-30T22:22:07.992Z,72.47
2023-03-30T22:27:28.682Z,72.57
2023-03-30T22:32:49.480Z,72.83
2023-03-30T22:38:11.362Z,72.32
2023-03-30T22:43:32.801Z,72.76
2023-03-30T22:48:55.703Z,72.71
2023-03-30T22:54:18.258Z,72.67
2023-03-30T22:59:39.098Z,72.66
2023-03-30T23:05:01.498Z,73.01
2023-03-30T23:10:25.456Z,73.15
2023-03-30T23:15:48.570Z,73.34
2023-03-30T23:21:11.247Z,72.83
2023-03-30T23:26:32.416Z,72.96
2023-03-30T23:31:53.366Z,72.91
2023-03-30T23:37:14.081Z,73.33
2023-03-30T23:42:34.829Z,73.05
2023-03-30T23:47:55.853Z,73.16
2023-03-30T23:53:16.559Z,72.59
2023-03-30T23:58:37.221Z,72.66
